Bettina K — PBEW — position and weather

sailwx.info

Track history (hours):
 
Tides and Currents Weather Stations Pressure Air Temp Water Temp Dewpoint Dewpoint Depression Visibility Wind Speed Wind Dir Waves Ship Positions

Bettina K

Last reported at 2015-May-26 09:33 UTC. Time now 2015-May-29 14:22 UTC.
Position N 58°31' E 012°34'.

Length 88 m; draft 4 m.

Type: Cargo ship. MMSI: 244730469.

Date/timePositionNaut miles runAvg speedWind from/ knotsBaromVisibWave heightAir tempDewpointWater temp
2015-May-26 09:33N 58°31' E 012°34'1010.0
2015-May-26 08:33N 58°24' E 012°20'4 4.0
2015-May-26 07:33N 58°20' E 012°21'4 4.3
2015-May-26 06:33N 58°17' E 012°17'1 1.2
2015-May-26 05:33N 58°16' E 012°15'3 3.4
2015-May-26 04:33N 58°14' E 012°10'6 5.6
2015-May-26 03:33N 58°08' E 012°07'6 5.6
2015-May-26 02:33N 58°03' E 012°09'8 7.8
2015-May-26 01:33N 57°55' E 012°04'8 7.5
2015-May-26 00:33N 57°48' E 012°01'5 5.3
2015-May-25 23:33N 57°43' E 011°58'7 6.7
2015-May-25 22:33N 57°40' E 011°47'8 8.4
2015-May-25 21:33N 57°37' E 011°33'7 7.1
2015-May-25 20:33N 57°41' E 011°22'9 9.2
2015-May-25 19:33N 57°44' E 011°06'1110.5
2015-May-25 18:32N 57°47' E 010°47'180 9.5
2015-May-24 23:32N 55°31' E 007°15'9 9.4
2015-May-24 22:33N 55°22' E 007°09'9 9.5
2015-May-24 21:33N 55°13' E 007°05'10 9.8
2015-May-24 20:33N 55°04' E 006°57'1010.0
2015-May-24 19:33N 54°55' E 006°50'2610.9
2015-May-24 17:10N 54°31' E 006°34'58 7.6
2015-May-24 09:33N 53°33' E 006°42'9 9.3
2015-May-24 08:33N 53°27' E 006°54'8 8.1
2015-May-24 07:33N 53°19' E 006°59'2 1.8
2015-May-24 06:33N 53°20' E 006°56'0 0.0
2015-May-24 05:33N 53°20' E 006°56'0 0.0
2015-May-24 04:30N 53°20' E 006°56'0 0.0
2015-May-24 03:33N 53°20' E 006°56'0 0.0
2015-May-24 02:33N 53°20' E 006°56'0 0.0
2015-May-24 01:33N 53°20' E 006°56'0 0.0
2015-May-24 00:33N 53°20' E 006°56'0 0.0
2015-May-23 23:33N 53°20' E 006°56'0 0.0
2015-May-23 22:27N 53°20' E 006°56'0 0.0
2015-May-23 21:33N 53°20' E 006°56'0 0.0
2015-May-23 20:33N 53°20' E 006°56'0 0.0
2015-May-23 19:33N 53°20' E 006°56'0 0.0
2015-May-23 18:33N 53°20' E 006°56'0 0.0
2015-May-23 17:33N 53°20' E 006°56'0 0.0
2015-May-23 16:30N 53°20' E 006°56'0 0.0
2015-May-23 15:33N 53°20' E 006°56'0 0.0
2015-May-23 14:33N 53°20' E 006°56'0 0.0
2015-May-23 13:33N 53°20' E 006°56'0 0.0
2015-May-23 12:33N 53°20' E 006°56'0 0.0
2015-May-23 11:33N 53°20' E 006°56'0 0.0
2015-May-23 10:33N 53°20' E 006°56'0 0.0
2015-May-23 09:33N 53°20' E 006°56'0 0.0
2015-May-23 08:33N 53°20' E 006°56'0 0.0
2015-May-23 07:33N 53°20' E 006°56'0 0.0
2015-May-23 06:30N 53°20' E 006°56'0 0.0
2015-May-23 05:33N 53°20' E 006°56'0 0.0
2015-May-23 04:33N 53°20' E 006°56'0 0.0
2015-May-23 03:33N 53°20' E 006°56'0 0.0
2015-May-23 02:33N 53°20' E 006°56'0 0.0
2015-May-23 01:33N 53°20' E 006°56'0 0.0
2015-May-23 00:33N 53°20' E 006°56'0 0.0
2015-May-22 23:32N 53°20' E 006°56'0 0.0
2015-May-22 22:32N 53°20' E 006°56'0 0.0
2015-May-22 21:33N 53°20' E 006°56'0 0.0
2015-May-22 20:33N 53°20' E 006°56'0 0.0
2015-May-22 19:32N 53°20' E 006°56'0 0.0
2015-May-22 18:33N 53°20' E 006°56'0 0.0
2015-May-22 17:33N 53°20' E 006°56'0 0.0
2015-May-22 16:32N 53°20' E 006°56'0 0.0
2015-May-22 15:33N 53°20' E 006°56'0 0.0
2015-May-22 14:33N 53°20' E 006°56'0 0.0
2015-May-22 13:30N 53°20' E 006°56'0 0.0
2015-May-22 12:33N 53°20' E 006°56'0 0.0
2015-May-22 11:29N 53°20' E 006°56'0 0.0
2015-May-22 10:32N 53°20' E 006°56'0 0.0
2015-May-22 09:32N 53°20' E 006°56'0 0.0
2015-May-22 08:32N 53°20' E 006°56'0 0.0
2015-May-22 07:29N 53°20' E 006°56'0 0.0
2015-May-22 06:32N 53°20' E 006°56'0 0.0
2015-May-22 05:27N 53°20' E 006°56'0 0.0
2015-May-22 04:32N 53°20' E 006°56'0 0.0
2015-May-22 03:32N 53°20' E 006°56'0 0.0
2015-May-22 02:32N 53°20' E 006°56'0 0.0
2015-May-22 01:32N 53°20' E 006°56'0 0.0
2015-May-22 00:32N 53°20' E 006°56'0 0.0
2015-May-21 23:32N 53°20' E 006°56'0 0.0
2015-May-21 22:32N 53°20' E 006°56'0 0.0
2015-May-21 21:32N 53°20' E 006°56'0 0.0
2015-May-21 20:32N 53°20' E 006°56'0 0.0
2015-May-21 19:32N 53°20' E 006°56'0 0.0
2015-May-21 18:32N 53°20' E 006°56'0 0.0
2015-May-21 17:32N 53°20' E 006°56'0 0.0
2015-May-21 16:32N 53°20' E 006°56'0 0.0
2015-May-21 15:32N 53°20' E 006°56'0 0.0
2015-May-21 14:32N 53°20' E 006°56'0 0.0
2015-May-21 13:32N 53°20' E 006°56'0 0.0
2015-May-21 12:32N 53°20' E 006°56'0 0.0
2015-May-21 11:32N 53°20' E 006°56'0 0.0
2015-May-21 10:32N 53°20' E 006°56'0 0.0
2015-May-21 09:32N 53°20' E 006°56'0 0.0
2015-May-21 08:32N 53°20' E 006°56'0 0.0
2015-May-21 07:32N 53°20' E 006°56'0 0.0
2015-May-21 06:29N 53°20' E 006°56'0 0.0
2015-May-21 05:29N 53°20' E 006°56'0 0.0
2015-May-21 04:32N 53°20' E 006°56'0 0.0
2015-May-21 03:32N 53°20' E 006°56'0 0.0
2015-May-21 02:32N 53°20' E 006°56'0 0.0
2015-May-21 01:32N 53°20' E 006°56'0 0.0
2015-May-21 00:32N 53°20' E 006°56'0 0.0
2015-May-20 23:32N 53°20' E 006°56'0 0.0
2015-May-20 22:32N 53°20' E 006°56'0 0.0
2015-May-20 21:32N 53°20' E 006°56'0 0.0
2015-May-20 20:32N 53°20' E 006°56'0 0.0
2015-May-20 19:32N 53°20' E 006°56'0 0.0
2015-May-20 18:32N 53°20' E 006°56'0 0.0
2015-May-20 17:29N 53°20' E 006°56'0 0.0
2015-May-20 16:32N 53°20' E 006°56'0 0.0
2015-May-20 15:32N 53°20' E 006°56'0 0.0
2015-May-20 14:29N 53°20' E 006°56'0 0.0
2015-May-20 13:32N 53°20' E 006°56'0 0.0
2015-May-20 12:32N 53°20' E 006°56'0 0.0
2015-May-20 11:32N 53°20' E 006°56'0 0.0
2015-May-20 10:33N 53°20' E 006°56'0 0.0
2015-May-20 09:30N 53°20' E 006°56'0 0.0
2015-May-20 08:24N 53°20' E 006°56'0 0.0
2015-May-20 07:30N 53°20' E 006°56'0 0.0
2015-May-20 06:33N 53°20' E 006°56'0 0.0
2015-May-20 05:33N 53°20' E 006°56'0 0.0
2015-May-20 04:33N 53°20' E 006°56'0 0.0
2015-May-20 03:34N 53°20' E 006°56'0 0.0
2015-May-20 02:31N 53°20' E 006°56'0 0.0
2015-May-20 01:31N 53°20' E 006°56'0 0.0
2015-May-20 00:33N 53°20' E 006°56'0 0.0
2015-May-19 23:34N 53°20' E 006°56'0 0.0
2015-May-19 22:33N 53°20' E 006°56'0 0.0
2015-May-19 21:34N 53°20' E 006°56'0 0.0
2015-May-19 20:33N 53°20' E 006°56'0 0.0
2015-May-19 19:30N 53°20' E 006°56'3 2.8
2015-May-19 18:33N 53°20' E 007°00'10 9.6
2015-May-19 17:33N 53°28' E 006°52'9 8.5
2015-May-19 16:33N 53°33' E 006°41'1 1.4
2015-May-19 15:31N 53°34' E 006°39'0 0.2
2015-May-19 14:33N 53°34' E 006°39'0 0.2
2015-May-19 13:33N 53°34' E 006°39'7 6.6
2015-May-19 12:33N 53°30' E 006°48'2 1.6
2015-May-19 11:33N 53°29' E 006°49'1 1.4
2015-May-19 10:34N 53°29' E 006°47'6 5.6
2015-May-19 09:33N 53°26' E 006°55'8 7.8
2015-May-19 08:33N 53°19' E 006°59'2 2.1
2015-May-19 07:29N 53°20' E 006°56'0 0.0
2015-May-19 06:31N 53°20' E 006°56'  
Track history (hours):
 
Tides and Currents Weather Stations Pressure Air Temp Water Temp Dewpoint Dewpoint Depression Visibility Wind Speed Wind Dir Waves Ship Positions

Bettina K

Last reported at 2015-May-26 09:33 UTC. Time now 2015-May-29 14:22 UTC.
Position N 58°31' E 012°34'.

Length 88 m; draft 4 m.

Type: Cargo ship. MMSI: 244730469.

Date/timePositionNaut miles runAvg speedWind from/ knotsBaromVisibWave heightAir tempDewpointWater temp
2015-May-26 09:33N 58°31' E 012°34'1010.0
2015-May-26 08:33N 58°24' E 012°20'4 4.0
2015-May-26 07:33N 58°20' E 012°21'4 4.3
2015-May-26 06:33N 58°17' E 012°17'1 1.2
2015-May-26 05:33N 58°16' E 012°15'3 3.4
2015-May-26 04:33N 58°14' E 012°10'6 5.6
2015-May-26 03:33N 58°08' E 012°07'6 5.6
2015-May-26 02:33N 58°03' E 012°09'8 7.8
2015-May-26 01:33N 57°55' E 012°04'8 7.5
2015-May-26 00:33N 57°48' E 012°01'5 5.3
2015-May-25 23:33N 57°43' E 011°58'7 6.7
2015-May-25 22:33N 57°40' E 011°47'8 8.4
2015-May-25 21:33N 57°37' E 011°33'7 7.1
2015-May-25 20:33N 57°41' E 011°22'9 9.2
2015-May-25 19:33N 57°44' E 011°06'1110.5
2015-May-25 18:32N 57°47' E 010°47'180 9.5
2015-May-24 23:32N 55°31' E 007°15'9 9.4
2015-May-24 22:33N 55°22' E 007°09'9 9.5
2015-May-24 21:33N 55°13' E 007°05'10 9.8
2015-May-24 20:33N 55°04' E 006°57'1010.0
2015-May-24 19:33N 54°55' E 006°50'2610.9
2015-May-24 17:10N 54°31' E 006°34'58 7.6
2015-May-24 09:33N 53°33' E 006°42'9 9.3
2015-May-24 08:33N 53°27' E 006°54'8 8.1
2015-May-24 07:33N 53°19' E 006°59'2 1.8
2015-May-24 06:33N 53°20' E 006°56'0 0.0
2015-May-24 05:33N 53°20' E 006°56'0 0.0
2015-May-24 04:30N 53°20' E 006°56'0 0.0
2015-May-24 03:33N 53°20' E 006°56'0 0.0
2015-May-24 02:33N 53°20' E 006°56'0 0.0
2015-May-24 01:33N 53°20' E 006°56'0 0.0
2015-May-24 00:33N 53°20' E 006°56'0 0.0
2015-May-23 23:33N 53°20' E 006°56'0 0.0
2015-May-23 22:27N 53°20' E 006°56'0 0.0
2015-May-23 21:33N 53°20' E 006°56'0 0.0
2015-May-23 20:33N 53°20' E 006°56'0 0.0
2015-May-23 19:33N 53°20' E 006°56'0 0.0
2015-May-23 18:33N 53°20' E 006°56'0 0.0
2015-May-23 17:33N 53°20' E 006°56'0 0.0
2015-May-23 16:30N 53°20' E 006°56'0 0.0
2015-May-23 15:33N 53°20' E 006°56'0 0.0
2015-May-23 14:33N 53°20' E 006°56'0 0.0
2015-May-23 13:33N 53°20' E 006°56'0 0.0
2015-May-23 12:33N 53°20' E 006°56'0 0.0
2015-May-23 11:33N 53°20' E 006°56'0 0.0
2015-May-23 10:33N 53°20' E 006°56'0 0.0
2015-May-23 09:33N 53°20' E 006°56'0 0.0
2015-May-23 08:33N 53°20' E 006°56'0 0.0
2015-May-23 07:33N 53°20' E 006°56'0 0.0
2015-May-23 06:30N 53°20' E 006°56'0 0.0
2015-May-23 05:33N 53°20' E 006°56'0 0.0
2015-May-23 04:33N 53°20' E 006°56'0 0.0
2015-May-23 03:33N 53°20' E 006°56'0 0.0
2015-May-23 02:33N 53°20' E 006°56'0 0.0
2015-May-23 01:33N 53°20' E 006°56'0 0.0
2015-May-23 00:33N 53°20' E 006°56'0 0.0
2015-May-22 23:32N 53°20' E 006°56'0 0.0
2015-May-22 22:32N 53°20' E 006°56'0 0.0
2015-May-22 21:33N 53°20' E 006°56'0 0.0
2015-May-22 20:33N 53°20' E 006°56'0 0.0
2015-May-22 19:32N 53°20' E 006°56'0 0.0
2015-May-22 18:33N 53°20' E 006°56'0 0.0
2015-May-22 17:33N 53°20' E 006°56'0 0.0
2015-May-22 16:32N 53°20' E 006°56'0 0.0
2015-May-22 15:33N 53°20' E 006°56'0 0.0
2015-May-22 14:33N 53°20' E 006°56'0 0.0
2015-May-22 13:30N 53°20' E 006°56'0 0.0
2015-May-22 12:33N 53°20' E 006°56'0 0.0
2015-May-22 11:29N 53°20' E 006°56'0 0.0
2015-May-22 10:32N 53°20' E 006°56'0 0.0
2015-May-22 09:32N 53°20' E 006°56'0 0.0
2015-May-22 08:32N 53°20' E 006°56'0 0.0
2015-May-22 07:29N 53°20' E 006°56'0 0.0
2015-May-22 06:32N 53°20' E 006°56'0 0.0
2015-May-22 05:27N 53°20' E 006°56'0 0.0
2015-May-22 04:32N 53°20' E 006°56'0 0.0
2015-May-22 03:32N 53°20' E 006°56'0 0.0
2015-May-22 02:32N 53°20' E 006°56'0 0.0
2015-May-22 01:32N 53°20' E 006°56'0 0.0
2015-May-22 00:32N 53°20' E 006°56'0 0.0
2015-May-21 23:32N 53°20' E 006°56'0 0.0
2015-May-21 22:32N 53°20' E 006°56'0 0.0
2015-May-21 21:32N 53°20' E 006°56'0 0.0
2015-May-21 20:32N 53°20' E 006°56'0 0.0
2015-May-21 19:32N 53°20' E 006°56'0 0.0
2015-May-21 18:32N 53°20' E 006°56'0 0.0
2015-May-21 17:32N 53°20' E 006°56'0 0.0
2015-May-21 16:32N 53°20' E 006°56'0 0.0
2015-May-21 15:32N 53°20' E 006°56'0 0.0
2015-May-21 14:32N 53°20' E 006°56'0 0.0
2015-May-21 13:32N 53°20' E 006°56'0 0.0
2015-May-21 12:32N 53°20' E 006°56'0 0.0
2015-May-21 11:32N 53°20' E 006°56'0 0.0
2015-May-21 10:32N 53°20' E 006°56'0 0.0
2015-May-21 09:32N 53°20' E 006°56'0 0.0
2015-May-21 08:32N 53°20' E 006°56'0 0.0
2015-May-21 07:32N 53°20' E 006°56'0 0.0
2015-May-21 06:29N 53°20' E 006°56'0 0.0
2015-May-21 05:29N 53°20' E 006°56'0 0.0
2015-May-21 04:32N 53°20' E 006°56'0 0.0
2015-May-21 03:32N 53°20' E 006°56'0 0.0
2015-May-21 02:32N 53°20' E 006°56'0 0.0
2015-May-21 01:32N 53°20' E 006°56'0 0.0
2015-May-21 00:32N 53°20' E 006°56'0 0.0
2015-May-20 23:32N 53°20' E 006°56'0 0.0
2015-May-20 22:32N 53°20' E 006°56'0 0.0
2015-May-20 21:32N 53°20' E 006°56'0 0.0
2015-May-20 20:32N 53°20' E 006°56'0 0.0
2015-May-20 19:32N 53°20' E 006°56'0 0.0
2015-May-20 18:32N 53°20' E 006°56'0 0.0
2015-May-20 17:29N 53°20' E 006°56'0 0.0
2015-May-20 16:32N 53°20' E 006°56'0 0.0
2015-May-20 15:32N 53°20' E 006°56'0 0.0
2015-May-20 14:29N 53°20' E 006°56'0 0.0
2015-May-20 13:32N 53°20' E 006°56'0 0.0
2015-May-20 12:32N 53°20' E 006°56'0 0.0
2015-May-20 11:32N 53°20' E 006°56'0 0.0
2015-May-20 10:33N 53°20' E 006°56'0 0.0
2015-May-20 09:30N 53°20' E 006°56'0 0.0
2015-May-20 08:24N 53°20' E 006°56'0 0.0
2015-May-20 07:30N 53°20' E 006°56'0 0.0
2015-May-20 06:33N 53°20' E 006°56'0 0.0
2015-May-20 05:33N 53°20' E 006°56'0 0.0
2015-May-20 04:33N 53°20' E 006°56'0 0.0
2015-May-20 03:34N 53°20' E 006°56'0 0.0
2015-May-20 02:31N 53°20' E 006°56'0 0.0
2015-May-20 01:31N 53°20' E 006°56'0 0.0
2015-May-20 00:33N 53°20' E 006°56'0 0.0
2015-May-19 23:34N 53°20' E 006°56'0 0.0
2015-May-19 22:33N 53°20' E 006°56'0 0.0
2015-May-19 21:34N 53°20' E 006°56'0 0.0
2015-May-19 20:33N 53°20' E 006°56'0 0.0
2015-May-19 19:30N 53°20' E 006°56'3 2.8
2015-May-19 18:33N 53°20' E 007°00'10 9.6
2015-May-19 17:33N 53°28' E 006°52'9 8.5
2015-May-19 16:33N 53°33' E 006°41'1 1.4
2015-May-19 15:31N 53°34' E 006°39'0 0.2
2015-May-19 14:33N 53°34' E 006°39'0 0.2
2015-May-19 13:33N 53°34' E 006°39'7 6.6
2015-May-19 12:33N 53°30' E 006°48'2 1.6
2015-May-19 11:33N 53°29' E 006°49'1 1.4
2015-May-19 10:34N 53°29' E 006°47'6 5.6
2015-May-19 09:33N 53°26' E 006°55'8 7.8
2015-May-19 08:33N 53°19' E 006°59'2 2.1
2015-May-19 07:29N 53°20' E 006°56'0 0.0
2015-May-19 06:31N 53°20' E 006°56'  

Dump ship's entire track history